Time;durP1;ratioP1;P1;durP2;ratioP2;P2;SDS_P1;SDS_P2;PMS_P1;PMS_P2;Temp;Humidity;BMP_temperature;BMP_pressure;BME280_temperature;BME280_humidity;BME280_pressure;Samples;Min_cycle;Max_cycle;Signal;HPM_P1;HPM_P2
2021/12/09 00:00:59;;;;;;;26.02;9.80;;;1.70;99.90;;;;;;5115925;28;20138;-75
2021/12/09 00:03:27;;;;;;;;;;;1.80;99.90;;;;;;5116091;28;20051;-74
2021/12/09 00:05:58;;;;;;;30.67;9.70;;;1.80;99.90;;;;;;5114722;28;19920;-74
2021/12/09 00:08:26;;;;;;;28.52;10.23;;;1.80;99.90;;;;;;5116171;28;20047;-74
2021/12/09 00:10:54;;;;;;;26.15;10.35;;;1.70;99.90;;;;;;5116211;28;20123;-74
2021/12/09 00:13:20;;;;;;;25.80;10.00;;;1.80;99.90;;;;;;5115428;28;20036;-74
2021/12/09 00:15:47;;;;;;;27.98;10.10;;;1.70;99.90;;;;;;5081104;28;20055;-73
2021/12/09 00:18:13;;;;;;;32.85;10.88;;;1.70;99.90;;;;;;5115696;28;20039;-74
2021/12/09 00:20:38;;;;;;;30.10;9.98;;;1.70;99.90;;;;;;5097611;28;20360;-75
2021/12/09 00:23:07;;;;;;;35.75;11.10;;;1.70;99.90;;;;;;5115881;28;20050;-74
2021/12/09 00:25:33;;;;;;;28.70;10.02;;;1.60;99.90;;;;;;5097115;28;20271;-74
2021/12/09 00:27:59;;;;;;;34.65;9.90;;;1.70;99.90;;;;;;5097150;28;20043;-74
2021/12/09 00:30:25;;;;;;;30.23;10.48;;;1.60;99.90;;;;;;5115159;28;20050;-73
2021/12/09 00:32:51;;;;;;;28.42;10.05;;;1.60;99.90;;;;;;5115339;28;20055;-73
2021/12/09 00:35:19;;;;;;;31.08;10.85;;;1.60;99.90;;;;;;5115082;28;20471;-74
2021/12/09 00:38:03;;;;;;;33.75;10.48;;;1.60;99.90;;;;;;5115235;28;20043;-74
2021/12/09 00:40:28;;;;;;;28.40;10.18;;;1.50;99.90;;;;;;5097625;28;20504;-74
2021/12/09 00:42:54;;;;;;;30.63;9.65;;;1.50;99.90;;;;;;5096669;28;20197;-74
2021/12/09 00:45:21;;;;;;;25.38;9.90;;;1.50;99.90;;;;;;5115000;28;20050;-75
2021/12/09 00:47:47;;;;;;;25.80;9.93;;;1.50;99.90;;;;;;5097188;28;20043;-74
2021/12/09 00:50:14;;;;;;;25.52;9.60;;;1.40;99.90;;;;;;5114900;28;20051;-74
2021/12/09 00:52:40;;;;;;;38.13;8.98;;;1.40;99.90;;;;;;5096425;28;20171;-75
2021/12/09 00:55:07;;;;;;;29.05;9.45;;;1.50;99.90;;;;;;5096618;28;20063;-74
2021/12/09 00:57:34;;;;;;;29.20;10.40;;;1.40;99.90;;;;;;5114579;28;20048;-75
2021/12/09 01:00:00;;;;;;;27.80;9.35;;;1.40;99.90;;;;;;5096775;28;20051;-75
2021/12/09 01:02:26;;;;;;;27.98;8.88;;;1.40;99.90;;;;;;5114680;28;20052;-75
2021/12/09 01:04:52;;;;;;;25.85;9.68;;;1.40;99.90;;;;;;5097022;28;20135;-74
2021/12/09 01:07:18;;;;;;;25.23;8.90;;;1.40;99.90;;;;;;5114513;28;20059;-74
2021/12/09 01:09:44;;;;;;;25.30;8.15;;;1.40;99.90;;;;;;5080079;28;20062;-73
2021/12/09 01:12:10;;;;;;;37.50;8.45;;;1.40;99.90;;;;;;5096505;28;20047;-74
2021/12/09 01:14:37;;;;;;;32.28;9.80;;;1.40;99.90;;;;;;5114708;28;20040;-73
2021/12/09 01:17:05;;;;;;;35.70;9.55;;;1.40;99.90;;;;;;5114430;28;20051;-75
2021/12/09 01:19:31;;;;;;;24.85;8.07;;;1.40;99.90;;;;;;5114086;28;20039;-75
2021/12/09 01:21:57;;;;;;;23.77;9.02;;;1.40;99.90;;;;;;5114285;28;20070;-75
2021/12/09 01:24:23;;;;;;;29.10;9.23;;;1.40;99.90;;;;;;5096062;28;20044;-74
2021/12/09 01:26:49;;;;;;;33.28;10.07;;;1.30;99.90;;;;;;5116074;28;20039;-74
2021/12/09 01:29:20;;;;;;;24.73;9.30;;;1.30;99.90;;;;;;5118550;28;20047;-74
2021/12/09 01:31:55;;;;;;;23.08;10.23;;;1.30;99.90;;;;;;5115271;28;20050;-74
2021/12/09 01:34:22;;;;;;;27.20;9.57;;;1.30;99.90;;;;;;5114769;28;20039;-74
2021/12/09 01:36:49;;;;;;;32.22;10.18;;;1.30;99.90;;;;;;5114394;28;20055;-73
2021/12/09 01:39:16;;;;;;;35.13;10.23;;;1.40;99.90;;;;;;5095237;28;20046;-74
2021/12/09 01:41:41;;;;;;;27.65;9.93;;;1.20;99.90;;;;;;5113552;28;20047;-73
2021/12/09 01:44:07;;;;;;;26.25;9.43;;;1.20;99.90;;;;;;5113755;28;20066;-74
2021/12/09 01:46:33;;;;;;;32.60;10.50;;;1.30;99.90;;;;;;5113829;28;20047;-74
2021/12/09 01:48:59;;;;;;;34.08;10.70;;;1.20;99.90;;;;;;5113652;28;20040;-74
2021/12/09 01:51:25;;;;;;;27.67;9.60;;;1.20;99.90;;;;;;5113640;28;20490;-75
2021/12/09 01:53:52;;;;;;;27.92;10.43;;;1.10;99.90;;;;;;5113904;28;20101;-74
2021/12/09 01:56:21;;;;;;;26.70;9.95;;;1.10;99.90;;;;;;5113560;28;20087;-74
2021/12/09 01:58:53;;;;;;;28.73;10.07;;;1.10;99.90;;;;;;5113790;28;20043;-74
2021/12/09 02:01:19;;;;;;;29.90;10.52;;;1.10;99.90;;;;;;5095717;28;20043;-75
2021/12/09 02:03:46;;;;;;;30.38;10.60;;;1.10;99.90;;;;;;5094268;28;20048;-73
2021/12/09 02:06:12;;;;;;;23.77;9.67;;;1.10;99.90;;;;;;5113731;28;20048;-73
2021/12/09 02:08:38;;;;;;;31.17;9.32;;;1.10;99.90;;;;;;5113836;28;20440;-75
2021/12/09 02:11:04;;;;;;;26.17;8.07;;;1.10;99.90;;;;;;5095442;28;20051;-74
2021/12/09 02:13:30;;;;;;;30.23;10.60;;;1.10;99.90;;;;;;5095332;28;20055;-75
2021/12/09 02:15:56;;;;;;;23.48;7.03;;;1.20;99.90;;;;;;5095355;28;20094;-74
2021/12/09 02:18:24;;;;;;;28.63;10.45;;;1.20;99.90;;;;;;5095210;28;20048;-73
2021/12/09 02:21:08;;;;;;;;;;;1.20;99.90;;;;;;5095965;28;20047;-73
2021/12/09 02:23:35;;;;;;;29.23;10.18;;;1.10;99.90;;;;;;5113063;28;19972;-73
2021/12/09 02:26:02;;;;;;;32.97;10.82;;;1.10;99.90;;;;;;5113108;28;20160;-73
2021/12/09 02:28:28;;;;;;;27.95;11.15;;;1.00;99.90;;;;;;5112949;28;20055;-74
2021/12/09 02:30:54;;;;;;;36.63;10.85;;;1.00;99.90;;;;;;5095594;28;20177;-74
2021/12/09 02:33:21;;;;;;;28.17;10.70;;;1.00;99.90;;;;;;5113255;28;20100;-74
2021/12/09 02:35:47;;;;;;;36.95;11.35;;;0.90;99.90;;;;;;5094971;28;20083;-74
2021/12/09 02:38:13;;;;;;;31.95;11.45;;;0.90;99.90;;;;;;5113121;28;20054;-74
2021/12/09 02:40:39;;;;;;;31.85;11.10;;;0.90;99.90;;;;;;5094615;28;20040;-74
2021/12/09 02:43:08;;;;;;;32.72;11.77;;;0.90;99.90;;;;;;5078464;28;20051;-73
2021/12/09 02:45:38;;;;;;;28.42;9.85;;;0.90;99.90;;;;;;5113044;28;20127;-73
2021/12/09 02:48:04;;;;;;;31.25;12.10;;;0.90;99.90;;;;;;5095617;28;20487;-73
2021/12/09 02:50:30;;;;;;;31.45;11.75;;;1.00;99.90;;;;;;5094780;28;20047;-74
2021/12/09 02:52:56;;;;;;;31.70;11.02;;;0.90;99.90;;;;;;5112848;28;20058;-73
2021/12/09 02:55:21;;;;;;;37.17;12.25;;;0.80;99.90;;;;;;5094611;28;20141;-75
2021/12/09 02:57:52;;;;;;;29.25;12.65;;;0.80;99.90;;;;;;5094750;28;20105;-75
2021/12/09 03:00:20;;;;;;;31.58;12.90;;;0.90;99.90;;;;;;5113322;28;20047;-73
2021/12/09 03:02:46;;;;;;;36.60;12.85;;;0.80;99.90;;;;;;5113008;28;20063;-74
2021/12/09 03:05:12;;;;;;;47.67;13.55;;;0.80;99.90;;;;;;5112496;28;20467;-74
2021/12/09 03:07:41;;;;;;;34.13;12.77;;;0.80;99.90;;;;;;5094511;28;20056;-74
2021/12/09 03:10:19;;;;;;;27.88;10.82;;;0.70;99.90;;;;;;5113049;28;20059;-74
2021/12/09 03:12:47;;;;;;;31.48;11.65;;;0.80;99.90;;;;;;5113063;28;20055;-74
2021/12/09 03:15:13;;;;;;;36.28;13.77;;;0.80;99.90;;;;;;5095345;28;20044;-74
2021/12/09 03:17:40;;;;;;;34.00;12.27;;;0.80;99.90;;;;;;5098713;28;20051;-73
2021/12/09 03:20:11;;;;;;;34.28;13.27;;;0.80;99.90;;;;;;5117224;28;20463;-75
2021/12/09 03:22:38;;;;;;;42.05;15.48;;;0.80;99.90;;;;;;5098820;28;20055;-74
2021/12/09 03:25:07;;;;;;;31.58;12.75;;;0.80;99.90;;;;;;5098175;28;20104;-73
2021/12/09 03:27:33;;;;;;;34.67;12.57;;;0.80;99.90;;;;;;5116639;28;20043;-74
2021/12/09 03:29:59;;;;;;;33.58;13.30;;;0.80;99.90;;;;;;5081827;28;20051;-74
2021/12/09 03:32:25;;;;;;;40.60;14.25;;;0.70;99.90;;;;;;5116483;28;20483;-74
2021/12/09 03:34:51;;;;;;;37.47;12.95;;;0.70;99.90;;;;;;5116702;28;20055;-75
2021/12/09 03:37:21;;;;;;;37.53;12.68;;;0.70;99.90;;;;;;5099033;28;20341;-74
2021/12/09 03:39:48;;;;;;;42.17;14.18;;;0.70;99.90;;;;;;5098566;28;20099;-74
2021/12/09 03:42:18;;;;;;;38.45;12.95;;;0.70;99.90;;;;;;5116860;28;20044;-74
2021/12/09 03:44:45;;;;;;;37.95;14.73;;;0.70;99.90;;;;;;5116294;28;20039;-75
2021/12/09 03:47:14;;;;;;;37.85;13.40;;;0.70;99.90;;;;;;5116369;28;20050;-75
2021/12/09 03:49:42;;;;;;;39.05;13.70;;;0.60;99.90;;;;;;5116438;28;20100;-75
2021/12/09 03:52:08;;;;;;;31.52;13.25;;;0.60;99.90;;;;;;5116252;28;20105;-74
2021/12/09 03:54:34;;;;;;;36.28;14.07;;;0.60;99.90;;;;;;5116611;28;20050;-75
2021/12/09 03:57:01;;;;;;;37.28;13.90;;;0.60;99.90;;;;;;5116110;28;20040;-74
2021/12/09 03:59:27;;;;;;;32.27;13.63;;;0.60;99.90;;;;;;5116090;28;20074;-74
2021/12/09 04:01:54;;;;;;;38.13;13.70;;;0.60;99.90;;;;;;5115984;28;20282;-75
2021/12/09 04:04:20;;;;;;;;;;;0.60;99.90;;;;;;5064355;28;20055;-74
2021/12/09 04:06:47;;;;;;;38.25;13.10;;;0.60;99.90;;;;;;5115862;28;19920;-75
2021/12/09 04:09:15;;;;;;;39.22;13.73;;;0.50;99.90;;;;;;5097629;28;20042;-74
2021/12/09 04:11:41;;;;;;;38.42;13.20;;;0.50;99.90;;;;;;5115779;28;20487;-74
2021/12/09 04:14:07;;;;;;;38.30;14.70;;;0.40;99.90;;;;;;5115565;28;20135;-74
2021/12/09 04:16:33;;;;;;;38.78;13.90;;;0.50;99.90;;;;;;5115698;28;20047;-74
2021/12/09 04:18:59;;;;;;;37.47;13.43;;;0.50;99.90;;;;;;5115733;28;20471;-74
2021/12/09 04:21:25;;;;;;;45.60;15.38;;;0.40;99.90;;;;;;5124382;28;20040;-74
2021/12/09 04:23:51;;;;;;;43.47;14.85;;;0.50;99.90;;;;;;5123047;28;20047;-74
2021/12/09 04:26:17;;;;;;;37.83;13.48;;;0.40;99.90;;;;;;5097767;28;20044;-74
2021/12/09 04:28:45;;;;;;;38.83;14.30;;;0.40;99.90;;;;;;5080334;28;20126;-74
2021/12/09 04:31:11;;;;;;;46.95;14.63;;;0.50;99.90;;;;;;5115935;28;20055;-74
2021/12/09 04:33:37;;;;;;;36.80;13.45;;;0.40;99.90;;;;;;5097015;28;20082;-74
2021/12/09 04:36:04;;;;;;;41.53;14.18;;;0.40;99.90;;;;;;5115895;28;20078;-74
2021/12/09 04:38:30;;;;;;;37.60;14.02;;;0.40;99.90;;;;;;5115381;28;20395;-73
2021/12/09 04:40:56;;;;;;;41.28;14.43;;;0.40;99.90;;;;;;5115664;28;20043;-74
2021/12/09 04:43:22;;;;;;;40.08;13.35;;;0.40;99.90;;;;;;5115006;28;20035;-74
2021/12/09 04:45:47;;;;;;;41.47;14.25;;;0.40;99.90;;;;;;5096731;28;20074;-74
2021/12/09 04:48:13;;;;;;;45.97;15.68;;;0.40;99.90;;;;;;5097152;28;20074;-73
2021/12/09 04:50:42;;;;;;;31.33;11.63;;;0.40;99.90;;;;;;5115703;28;20597;-73
2021/12/09 04:53:09;;;;;;;41.05;13.85;;;0.40;99.90;;;;;;5115152;28;20493;-73
2021/12/09 04:55:35;;;;;;;38.70;14.05;;;0.50;99.90;;;;;;5096757;28;20044;-73
2021/12/09 04:58:02;;;;;;;35.90;12.47;;;0.50;99.90;;;;;;5114843;28;20044;-74
2021/12/09 05:00:30;;;;;;;38.15;14.48;;;0.50;99.90;;;;;;5096495;28;20471;-74
2021/12/09 05:05:21;;;;;;;45.80;15.45;;;0.50;99.90;;;;;;5115040;28;20044;-74
2021/12/09 05:07:48;;;;;;;39.58;14.82;;;0.50;99.90;;;;;;5096625;28;20055;-75
2021/12/09 05:10:14;;;;;;;49.40;14.95;;;0.40;99.90;;;;;;5096658;28;20139;-74
2021/12/09 05:12:40;;;;;;;40.90;15.80;;;0.40;99.90;;;;;;5115040;28;20127;-74
2021/12/09 05:15:08;;;;;;;42.60;15.93;;;0.40;99.90;;;;;;5096293;28;20455;-74
2021/12/09 05:17:33;;;;;;;40.20;15.73;;;0.40;99.90;;;;;;5079783;28;20047;-74
2021/12/09 05:19:59;;;;;;;45.00;15.27;;;0.40;99.90;;;;;;5096215;28;20050;-74
2021/12/09 05:22:25;;;;;;;44.25;15.82;;;0.40;99.90;;;;;;5095924;28;20039;-74
2021/12/09 05:24:52;;;;;;;48.25;16.13;;;0.40;99.90;;;;;;5114128;28;20050;-74
2021/12/09 05:27:18;;;;;;;44.63;14.30;;;0.30;99.90;;;;;;5114692;28;20482;-74
2021/12/09 05:29:46;;;;;;;40.70;14.65;;;0.30;99.90;;;;;;5096337;28;20286;-73
2021/12/09 05:32:13;;;;;;;43.15;16.23;;;0.30;99.90;;;;;;5114408;28;20047;-73
2021/12/09 05:34:44;;;;;;;44.38;14.80;;;0.30;99.90;;;;;;5114384;28;20050;-75
2021/12/09 05:37:16;;;;;;;44.38;15.70;;;0.30;99.90;;;;;;5114124;28;20367;-74
2021/12/09 05:39:43;;;;;;;51.10;18.38;;;0.30;99.90;;;;;;5095736;28;20059;-75
2021/12/09 05:42:11;;;;;;;52.17;18.17;;;0.40;99.90;;;;;;5079186;28;20047;-75
2021/12/09 05:44:37;;;;;;;46.33;16.42;;;0.50;99.90;;;;;;5114086;28;20043;-74
2021/12/09 05:47:05;;;;;;;61.85;17.70;;;0.40;99.90;;;;;;5114336;28;20180;-74
2021/12/09 05:49:32;;;;;;;45.05;16.17;;;0.40;99.90;;;;;;5095955;28;20062;-73
2021/12/09 05:51:58;;;;;;;52.30;18.60;;;0.30;99.90;;;;;;5113857;28;20096;-75
2021/12/09 05:54:24;;;;;;;53.05;17.80;;;0.30;99.90;;;;;;5114056;28;20079;-75
2021/12/09 05:56:50;;;;;;;46.17;16.15;;;0.30;99.90;;;;;;5078858;28;20094;-75
2021/12/09 05:59:16;;;;;;;50.60;15.95;;;0.40;99.90;;;;;;5096000;28;20039;-74
2021/12/09 06:01:42;;;;;;;46.35;15.70;;;0.40;99.90;;;;;;5113920;28;20041;-74
2021/12/09 06:04:09;;;;;;;43.92;16.50;;;0.30;99.90;;;;;;5113267;28;20085;-75
2021/12/09 06:06:36;;;;;;;;;;;0.30;99.90;;;;;;5096144;28;20198;-74
2021/12/09 06:09:04;;;;;;;40.97;14.98;;;0.20;99.90;;;;;;5113428;28;19920;-75
2021/12/09 06:11:30;;;;;;;43.00;15.75;;;0.20;99.90;;;;;;5114584;28;20051;-74
2021/12/09 06:13:56;;;;;;;56.13;15.77;;;0.20;99.90;;;;;;5098242;28;20043;-74
2021/12/09 06:16:24;;;;;;;44.53;15.25;;;0.20;99.90;;;;;;5097173;28;20162;-75
2021/12/09 06:18:51;;;;;;;47.75;15.27;;;0.20;99.90;;;;;;5096244;28;20155;-75
2021/12/09 06:21:19;;;;;;;45.47;16.15;;;0.20;99.90;;;;;;5078765;28;20422;-73
2021/12/09 06:23:45;;;;;;;;;;;0.30;99.90;;;;;;5114787;28;20376;-74
2021/12/09 06:26:11;;;;;;;46.00;14.27;;;0.30;99.90;;;;;;5096200;28;19919;-74
2021/12/09 06:28:38;;;;;;;37.80;14.27;;;0.20;99.90;;;;;;5113178;28;20043;-74
2021/12/09 06:31:05;;;;;;;48.53;14.90;;;0.20;99.90;;;;;;5113402;28;20036;-75
2021/12/09 06:33:32;;;;;;;;;;;0.20;99.90;;;;;;5079861;28;20087;-74
2021/12/09 06:35:58;;;;;;;41.63;14.15;;;0.20;99.90;;;;;;5113481;28;19919;-76
2021/12/09 06:38:24;;;;;;;48.60;15.93;;;0.30;99.90;;;;;;5095182;28;20073;-74
2021/12/09 06:40:51;;;;;;;49.83;15.73;;;0.30;99.90;;;;;;5113359;28;20044;-74
2021/12/09 06:43:17;;;;;;;51.00;18.52;;;0.30;99.90;;;;;;5061541;28;20146;-74
2021/12/09 06:45:43;;;;;;;45.50;14.27;;;0.30;99.90;;;;;;5113098;28;20039;-74
2021/12/09 06:48:09;;;;;;;42.50;14.90;;;0.30;99.90;;;;;;5078070;28;20150;-74
2021/12/09 06:50:36;;;;;;;47.27;15.43;;;0.30;99.90;;;;;;5116436;28;20048;-74
2021/12/09 06:53:02;;;;;;;51.07;15.87;;;0.30;99.90;;;;;;5084832;28;20135;-75
2021/12/09 06:55:28;;;;;;;47.13;15.13;;;0.30;99.90;;;;;;5120148;28;20329;-74
2021/12/09 06:57:54;;;;;;;49.85;16.10;;;0.30;99.90;;;;;;5120173;28;20093;-74
2021/12/09 07:00:27;;;;;;;51.00;14.88;;;0.20;99.90;;;;;;5119838;28;20185;-75
2021/12/09 07:02:54;;;;;;;45.28;13.30;;;0.20;99.90;;;;;;5119960;28;20044;-73
2021/12/09 07:05:23;;;;;;;48.70;15.35;;;0.20;99.90;;;;;;5068008;28;20066;-75
2021/12/09 07:07:50;;;;;;;45.83;14.50;;;0.20;99.90;;;;;;5101885;28;20070;-74
2021/12/09 07:10:16;;;;;;;45.08;15.82;;;0.30;99.90;;;;;;5084808;28;20062;-74
2021/12/09 07:12:42;;;;;;;49.63;15.48;;;0.30;99.90;;;;;;5102522;28;20048;-74
2021/12/09 07:15:11;;;;;;;47.05;16.58;;;0.30;99.90;;;;;;5106408;28;20096;-75
2021/12/09 07:17:37;;;;;;;40.20;15.48;;;0.30;99.90;;;;;;5126433;28;20090;-74
2021/12/09 07:20:07;;;;;;;43.85;14.95;;;0.30;99.90;;;;;;5122104;28;20047;-73
2021/12/09 07:22:34;;;;;;;40.45;14.35;;;0.30;99.90;;;;;;5120842;28;20047;-73
2021/12/09 07:25:00;;;;;;;55.40;17.13;;;0.20;99.90;;;;;;5119424;28;20135;-75
2021/12/09 07:27:26;;;;;;;43.28;14.32;;;0.20;99.90;;;;;;5120481;28;20039;-75
2021/12/09 07:29:51;;;;;;;37.90;13.23;;;0.10;99.90;;;;;;5120927;28;20047;-73
2021/12/09 07:32:17;;;;;;;42.47;14.07;;;0.20;99.90;;;;;;5101306;28;20035;-73
2021/12/09 07:34:43;;;;;;;39.55;13.13;;;0.20;99.90;;;;;;5102682;28;20448;-72
2021/12/09 07:37:09;;;;;;;50.28;14.18;;;0.20;99.90;;;;;;5104704;28;20047;-74
2021/12/09 07:39:35;;;;;;;49.42;15.32;;;0.30;99.90;;;;;;5090934;28;20047;-73
2021/12/09 07:42:02;;;;;;;42.42;13.80;;;0.30;99.90;;;;;;5121454;28;20040;-74
2021/12/09 07:44:29;;;;;;;46.38;14.52;;;0.30;99.90;;;;;;5103412;28;20123;-73
2021/12/09 07:46:57;;;;;;;39.28;15.20;;;0.20;99.90;;;;;;5102421;28;20079;-73
2021/12/09 07:49:24;;;;;;;44.08;13.00;;;0.20;99.90;;;;;;5121805;28;20043;-74
2021/12/09 07:51:50;;;;;;;41.75;13.25;;;0.20;99.90;;;;;;5120076;28;20100;-74
2021/12/09 07:54:17;;;;;;;34.67;12.13;;;0.20;99.90;;;;;;5122027;28;20054;-74
2021/12/09 07:56:43;;;;;;;37.40;13.17;;;0.20;99.90;;;;;;5122265;28;20043;-74
2021/12/09 07:59:11;;;;;;;45.15;12.63;;;0.20;99.90;;;;;;5123229;28;20134;-74
2021/12/09 08:01:40;;;;;;;44.08;12.82;;;0.20;99.90;;;;;;5090647;28;20063;-75
2021/12/09 08:04:07;;;;;;;39.38;12.32;;;0.20;99.90;;;;;;5127287;28;20066;-77
2021/12/09 08:06:35;;;;;;;38.05;11.85;;;0.20;99.90;;;;;;5124540;28;20069;-76
2021/12/09 08:09:02;;;;;;;37.40;11.80;;;0.30;99.90;;;;;;5105193;28;20052;-76
2021/12/09 08:11:28;;;;;;;40.20;12.93;;;0.30;99.90;;;;;;5106627;28;20295;-76
2021/12/09 08:13:55;;;;;;;36.30;12.18;;;0.30;99.90;;;;;;5086691;28;20043;-76
2021/12/09 08:16:21;;;;;;;38.58;13.90;;;0.30;99.90;;;;;;5101026;28;20043;-76
2021/12/09 08:18:56;;;;;;;38.15;13.48;;;0.30;99.90;;;;;;5099884;28;20047;-75
2021/12/09 08:21:24;;;;;;;48.40;13.80;;;0.30;99.90;;;;;;5098849;28;20487;-76
2021/12/09 08:23:51;;;;;;;41.38;13.77;;;0.40;99.90;;;;;;5116509;28;20059;-76
2021/12/09 08:26:17;;;;;;;38.85;12.80;;;0.30;99.90;;;;;;5116508;28;20430;-77
2021/12/09 08:28:43;;;;;;;39.05;13.23;;;0.40;99.90;;;;;;5098158;28;20054;-75
2021/12/09 08:31:09;;;;;;;43.97;12.25;;;0.40;99.90;;;;;;5116243;28;20127;-75
2021/12/09 08:33:34;;;;;;;36.50;13.05;;;0.50;99.90;;;;;;5097296;28;20047;-75
2021/12/09 08:36:00;;;;;;;37.38;14.20;;;0.50;99.90;;;;;;5097364;28;20079;-75
2021/12/09 08:38:26;;;;;;;35.35;12.02;;;0.60;99.90;;;;;;5097305;28;20082;-76
2021/12/09 08:40:53;;;;;;;39.15;14.15;;;0.60;99.90;;;;;;5096802;28;20071;-75
2021/12/09 08:43:20;;;;;;;;;;;0.60;99.90;;;;;;5115974;28;20066;-75
2021/12/09 08:45:48;;;;;;;37.28;11.63;;;0.60;99.90;;;;;;5115461;28;19919;-76
2021/12/09 08:48:14;;;;;;;40.78;14.07;;;0.70;99.90;;;;;;5116187;28;20131;-76
2021/12/09 08:50:43;;;;;;;42.00;15.05;;;0.70;99.90;;;;;;5115322;28;20088;-75
2021/12/09 08:53:12;;;;;;;48.30;14.68;;;0.70;99.90;;;;;;5097252;28;20055;-75
2021/12/09 08:55:39;;;;;;;42.85;14.15;;;0.70;99.90;;;;;;5115015;28;20048;-75
2021/12/09 08:58:05;;;;;;;52.53;16.23;;;0.70;99.90;;;;;;5115375;28;20051;-76
2021/12/09 09:00:32;;;;;;;49.85;16.10;;;0.80;99.90;;;;;;5096693;28;20441;-76
2021/12/09 09:02:58;;;;;;;42.13;15.50;;;0.80;99.90;;;;;;5115310;28;20139;-76
2021/12/09 09:05:26;;;;;;;50.08;15.27;;;0.90;99.90;;;;;;5114939;28;20052;-76
2021/12/09 09:07:52;;;;;;;34.33;13.85;;;0.90;99.90;;;;;;5096867;28;20073;-76
2021/12/09 09:10:23;;;;;;;41.45;13.55;;;0.90;99.90;;;;;;5096564;28;20317;-76
2021/12/09 09:12:49;;;;;;;35.70;13.00;;;0.90;99.90;;;;;;5114965;28;20059;-75
2021/12/09 09:15:17;;;;;;;46.60;15.43;;;0.90;99.90;;;;;;5115085;28;20462;-76
2021/12/09 09:17:43;;;;;;;40.88;13.68;;;1.00;99.90;;;;;;5115350;28;20048;-75
2021/12/09 09:20:11;;;;;;;44.22;13.65;;;1.00;99.90;;;;;;5118882;28;20077;-75
2021/12/09 09:22:39;;;;;;;36.25;14.18;;;1.00;99.90;;;;;;5099279;28;20051;-75
2021/12/09 09:25:07;;;;;;;42.92;12.95;;;1.10;99.90;;;;;;5115565;28;20079;-75
2021/12/09 09:27:33;;;;;;;38.35;13.20;;;1.10;99.90;;;;;;5098788;28;20051;-75
2021/12/09 09:29:58;;;;;;;37.55;12.65;;;1.30;99.90;;;;;;5097203;28;20420;-76
2021/12/09 09:32:24;;;;;;;36.15;11.93;;;1.20;99.90;;;;;;5115115;28;20070;-76
2021/12/09 09:34:53;;;;;;;41.70;12.40;;;1.20;99.90;;;;;;5114410;28;20053;-76
2021/12/09 09:37:20;;;;;;;32.75;12.65;;;1.30;99.90;;;;;;5114412;28;20123;-77
2021/12/09 09:39:47;;;;;;;37.00;12.40;;;1.40;99.90;;;;;;5096516;28;20058;-76
2021/12/09 09:44:47;;;;;;;37.15;12.80;;;1.50;99.90;;;;;;5114131;28;20467;-78
2021/12/09 09:47:16;;;;;;;33.40;11.18;;;1.50;99.90;;;;;;5115176;28;20195;-76
2021/12/09 09:49:42;;;;;;;39.47;12.45;;;1.60;99.90;;;;;;5096132;28;20047;-77
2021/12/09 09:52:09;;;;;;;29.70;11.63;;;1.60;99.90;;;;;;5114118;28;20062;-76
2021/12/09 09:54:37;;;;;;;28.38;11.60;;;1.70;99.90;;;;;;5079311;28;20682;-77
2021/12/09 09:57:04;;;;;;;30.85;11.95;;;1.80;99.90;;;;;;5114202;28;20074;-75
2021/12/09 09:59:31;;;;;;;39.05;11.48;;;1.90;99.90;;;;;;5114735;28;20090;-78
2021/12/09 10:01:57;;;;;;;32.10;11.30;;;1.80;99.90;;;;;;5096108;28;20091;-76
2021/12/09 10:04:44;;;;;;;37.08;11.35;;;1.90;99.90;;;;;;5114491;28;20059;-78
2021/12/09 10:07:13;;;;;;;28.45;10.07;;;1.90;99.90;;;;;;5119539;28;20106;-75
2021/12/09 10:09:39;;;;;;;30.83;10.48;;;2.00;99.90;;;;;;5121364;28;20100;-76
2021/12/09 10:12:06;;;;;;;26.55;9.63;;;2.00;99.90;;;;;;5100234;28;20043;-76
2021/12/09 10:14:35;;;;;;;32.65;11.63;;;2.00;99.90;;;;;;5097974;28;20154;-76
2021/12/09 10:17:13;;;;;;;36.65;9.43;;;2.10;99.90;;;;;;5114866;28;20047;-77
2021/12/09 10:19:46;;;;;;;32.00;11.82;;;2.10;99.90;;;;;;5114272;28;20051;-77
2021/12/09 10:22:16;;;;;;;37.78;10.05;;;2.30;99.90;;;;;;5116137;28;20078;-76
2021/12/09 10:24:44;;;;;;;32.15;9.68;;;2.40;99.90;;;;;;5097020;28;20453;-77
2021/12/09 10:27:18;;;;;;;29.67;9.98;;;2.50;99.90;;;;;;5098076;28;20451;-76
2021/12/09 10:29:46;;;;;;;27.75;10.10;;;2.50;99.90;;;;;;5097327;28;20048;-76
2021/12/09 10:32:20;;;;;;;30.10;9.60;;;2.60;99.90;;;;;;5114431;28;20082;-78
2021/12/09 10:34:49;;;;;;;29.17;9.77;;;2.70;99.90;;;;;;5096701;28;20463;-77
2021/12/09 10:37:22;;;;;;;30.67;9.98;;;2.70;99.90;;;;;;5114750;28;20066;-78
2021/12/09 10:39:52;;;;;;;28.65;9.80;;;2.80;99.90;;;;;;5079275;28;20044;-74
2021/12/09 10:42:28;;;;;;;30.15;9.98;;;2.80;99.90;;;;;;5095695;28;20050;-74
2021/12/09 10:45:06;;;;;;;33.92;9.82;;;2.90;99.90;;;;;;5112367;28;20049;-74
2021/12/09 10:50:26;;;;;;;28.23;9.15;;;2.90;99.90;;;;;;5114389;28;20139;-75
2021/12/09 10:55:52;;;;;;;28.27;9.68;;;3.10;99.90;;;;;;5113540;28;20047;-75
2021/12/09 10:58:21;;;;;;;25.90;8.90;;;3.10;99.90;;;;;;5095407;28;20419;-74
2021/12/09 11:00:55;;;;;;;27.77;10.10;;;3.20;99.90;;;;;;5094985;28;20044;-76
2021/12/09 11:03:32;;;;;;;26.65;9.75;;;3.20;99.90;;;;;;5113094;28;20138;-75
2021/12/09 11:06:03;;;;;;;29.30;9.27;;;3.30;99.90;;;;;;5094911;28;20059;-76
2021/12/09 11:08:41;;;;;;;29.65;9.57;;;3.30;99.90;;;;;;5113482;28;20052;-75
2021/12/09 11:11:15;;;;;;;26.90;8.70;;;3.40;99.90;;;;;;5113450;28;20154;-75
2021/12/09 11:13:56;;;;;;;24.08;9.43;;;3.50;99.90;;;;;;5113686;28;20050;-75
2021/12/09 11:16:29;;;;;;;23.58;8.88;;;3.50;99.90;;;;;;5094767;28;20487;-75
2021/12/09 11:19:04;;;;;;;24.73;8.98;;;3.50;99.90;;;;;;5096649;28;20055;-76
2021/12/09 11:21:32;;;;;;;27.27;10.52;;;3.50;99.90;;;;;;5114713;28;20047;-75
2021/12/09 11:24:20;;;;;;;28.55;10.90;;;3.50;99.90;;;;;;5114091;28;20036;-76
2021/12/09 11:29:32;;;;;;;28.92;10.55;;;3.50;99.90;;;;;;5095190;28;20043;-76
2021/12/09 11:32:14;;;;;;;33.58;12.63;;;3.40;99.90;;;;;;5113166;28;20059;-76
2021/12/09 11:34:54;;;;;;;30.63;12.23;;;3.40;99.90;;;;;;5113412;28;20051;-78
2021/12/09 11:40:14;;;;;;;42.08;12.13;;;3.40;99.90;;;;;;5116162;28;20055;-76
2021/12/09 11:45:10;;;;;;;27.73;10.88;;;3.40;99.90;;;;;;5116829;28;20039;-75
2021/12/09 11:47:43;;;;;;;35.13;11.63;;;3.40;99.90;;;;;;5116713;28;20043;-78
2021/12/09 11:50:12;;;;;;;33.38;11.30;;;3.30;99.90;;;;;;5116419;28;20052;-78
2021/12/09 11:52:38;;;;;;;29.23;10.55;;;3.40;99.90;;;;;;5116418;28;20083;-78
2021/12/09 11:55:06;;;;;;;36.53;11.10;;;3.40;99.90;;;;;;5097802;28;20058;-76
2021/12/09 11:57:40;;;;;;;36.88;11.13;;;3.40;99.90;;;;;;5116091;28;20120;-76
2021/12/09 12:19:03;;;;;;;34.88;11.35;;;3.60;99.90;;;;;;5061977;28;20048;-78
2021/12/09 12:21:50;;;;;;;36.00;11.85;;;3.60;99.90;;;;;;5076011;28;20049;-78
2021/12/09 12:25:02;;;;;;;36.42;12.13;;;3.60;99.90;;;;;;5057090;28;20037;-79
2021/12/09 12:27:38;;;;;;;42.13;13.13;;;3.70;99.90;;;;;;5076003;28;20036;-79
2021/12/09 12:41:02;;;;;;;41.35;12.77;;;3.80;99.90;;;;;;5075401;28;20064;-78
2021/12/09 12:43:57;;;;;;;40.10;12.05;;;3.70;99.90;;;;;;5057209;28;20128;-79
2021/12/09 12:46:57;;;;;;;40.60;12.93;;;3.70;99.90;;;;;;5108212;28;20151;-76
2021/12/09 12:52:08;;;;;;;44.53;13.50;;;3.70;99.90;;;;;;5074717;28;20087;-76
2021/12/09 12:54:45;;;;;;;44.70;13.68;;;3.70;99.90;;;;;;5091730;28;20048;-75
2021/12/09 12:57:25;;;;;;;46.42;12.45;;;3.80;99.90;;;;;;5073409;28;20143;-76
2021/12/09 13:00:11;;;;;;;38.15;13.10;;;3.90;99.90;;;;;;5074481;28;20071;-76
2021/12/09 13:05:34;;;;;;;41.92;13.77;;;3.90;99.90;;;;;;5086722;28;20060;-76
2021/12/09 13:13:29;;;;;;;49.92;12.57;;;4.10;99.90;;;;;;5094656;28;20087;-76
2021/12/09 13:16:13;;;;;;;35.38;12.13;;;4.10;99.90;;;;;;5095456;28;20089;-78
2021/12/09 13:19:11;;;;;;;39.67;13.55;;;4.10;99.90;;;;;;5077345;28;20387;-77
2021/12/09 13:21:37;;;;;;;37.97;11.57;;;4.10;99.90;;;;;;5093726;28;20044;-77
2021/12/09 13:24:35;;;;;;;33.00;11.85;;;4.10;99.90;;;;;;5093934;28;20112;-76
2021/12/09 13:35:40;;;;;;;35.75;10.90;;;4.00;99.90;;;;;;5094764;28;20044;-76
2021/12/09 13:45:53;;;;;;;40.03;12.27;;;4.10;99.90;;;;;;5094558;28;20056;-75
2021/12/09 13:46:33;;;;;;;35.40;11.50;;;4.00;99.90;;;;;;5095300;28;20048;-76
2021/12/09 13:49:11;;;;;;;36.60;13.05;;;4.00;99.90;;;;;;5093260;28;20093;-77
2021/12/09 13:54:30;;;;;;;38.53;13.18;;;4.00;99.90;;;;;;5093107;28;20139;-76
2021/12/09 13:56:59;;;;;;;33.90;11.23;;;3.90;99.90;;;;;;5094370;28;20047;-75
2021/12/09 13:59:27;;;;;;;32.70;11.85;;;4.00;99.90;;;;;;5093690;28;20358;-76
2021/12/09 14:01:55;;;;;;;30.75;12.27;;;4.00;99.90;;;;;;5093509;28;20063;-75
2021/12/09 14:04:23;;;;;;;33.50;11.82;;;4.00;99.90;;;;;;5097912;28;20060;-76